createdAt,value
2018-11-10T00:01:41.413Z,18.00
2018-11-10T00:04:27.686Z,17.17
2018-11-10T00:06:56.735Z,22.17
2018-11-10T00:09:25.754Z,16.97
2018-11-10T00:11:56.130Z,14.43
2018-11-10T00:14:25.233Z,15.57
2018-11-10T00:16:54.186Z,15.10
2018-11-10T00:19:23.174Z,19.77
2018-11-10T00:21:52.207Z,14.93
2018-11-10T00:24:21.200Z,16.33
2018-11-10T00:26:50.225Z,21.90
2018-11-10T00:29:19.469Z,13.43
2018-11-10T00:31:48.514Z,14.77
2018-11-10T00:34:17.579Z,16.43
2018-11-10T00:36:46.603Z,25.27
2018-11-10T00:39:15.670Z,23.50
2018-11-10T00:41:44.762Z,16.63
2018-11-10T00:44:13.783Z,14.63
2018-11-10T00:46:42.817Z,14.53
2018-11-10T00:49:11.840Z,18.37
2018-11-10T00:51:40.998Z,19.50
2018-11-10T00:54:09.971Z,14.60
2018-11-10T00:56:39.006Z,13.67
2018-11-10T00:59:08.785Z,13.20
2018-11-10T01:01:37.773Z,16.93
2018-11-10T01:04:07.203Z,14.13
2018-11-10T01:06:36.229Z,19.40
2018-11-10T01:09:06.600Z,14.87
2018-11-10T01:11:35.658Z,18.63
2018-11-10T01:14:04.855Z,9.43
2018-11-10T01:16:33.869Z,12.77
2018-11-10T01:19:02.942Z,16.67
2018-11-10T01:21:31.995Z,17.67
2018-11-10T01:24:01.040Z,10.83
2018-11-10T01:26:30.012Z,15.33
2018-11-10T01:28:59.097Z,16.80
2018-11-10T01:31:28.165Z,19.13
2018-11-10T01:33:57.188Z,24.77
2018-11-10T01:36:26.176Z,14.27
2018-11-10T01:38:55.287Z,9.47
2018-11-10T01:41:24.287Z,23.43
2018-11-10T01:43:53.343Z,13.73
2018-11-10T01:46:22.504Z,17.07
2018-11-10T01:48:51.496Z,22.07
2018-11-10T01:51:20.520Z,15.47
2018-11-10T01:53:49.583Z,13.83
2018-11-10T01:56:18.580Z,23.53
2018-11-10T01:58:48.287Z,16.23
2018-11-10T02:01:17.304Z,19.87
2018-11-10T02:03:46.369Z,18.07
2018-11-10T02:06:15.538Z,14.53
2018-11-10T02:08:44.803Z,21.13
2018-11-10T02:11:14.096Z,15.17
2018-11-10T02:13:43.173Z,10.57
2018-11-10T02:16:12.261Z,14.43
2018-11-10T02:18:41.392Z,11.13
2018-11-10T02:21:10.594Z,16.77
2018-11-10T02:23:39.763Z,17.40
2018-11-10T02:26:08.882Z,17.93
2018-11-10T02:28:38.182Z,18.77
2018-11-10T02:31:07.371Z,17.53
2018-11-10T02:33:36.371Z,14.63
2018-11-10T02:36:05.656Z,24.70
2018-11-10T02:38:34.808Z,19.97
2018-11-10T02:41:03.825Z,22.13
2018-11-10T02:43:32.830Z,22.00
2018-11-10T02:46:02.073Z,27.90
2018-11-10T02:48:32.088Z,19.37
2018-11-10T02:51:01.074Z,22.30
2018-11-10T02:53:30.213Z,19.87
2018-11-10T02:55:59.352Z,18.20
2018-11-10T02:58:28.360Z,22.67
2018-11-10T03:00:57.501Z,25.93
2018-11-10T03:03:26.586Z,15.33
2018-11-10T03:05:55.827Z,18.10
2018-11-10T03:08:24.848Z,22.47
2018-11-10T03:10:53.856Z,17.30
2018-11-10T03:13:23.327Z,26.00
2018-11-10T03:15:52.413Z,20.00
2018-11-10T03:18:21.444Z,14.10
2018-11-10T03:20:50.701Z,18.27
2018-11-10T03:23:19.826Z,15.10
2018-11-10T03:25:48.862Z,18.43
2018-11-10T03:28:17.829Z,17.60
2018-11-10T03:30:47.200Z,29.03
2018-11-10T03:33:16.184Z,19.73
2018-11-10T03:35:45.860Z,14.57
2018-11-10T03:38:15.131Z,13.27
2018-11-10T03:40:44.359Z,15.50
2018-11-10T03:43:13.349Z,11.47
2018-11-10T03:45:42.330Z,24.53
2018-11-10T03:48:11.725Z,15.57
2018-11-10T03:50:40.708Z,24.30
2018-11-10T03:53:09.657Z,18.10
2018-11-10T03:55:38.826Z,14.50
2018-11-10T03:58:08.001Z,18.33
2018-11-10T04:00:37.017Z,17.53
2018-11-10T04:03:06.127Z,17.00
2018-11-10T04:05:35.122Z,20.13
2018-11-10T04:08:04.196Z,24.87
2018-11-10T04:10:33.221Z,15.57
2018-11-10T04:13:02.222Z,21.53
2018-11-10T04:15:31.315Z,18.67
2018-11-10T04:18:00.305Z,15.80
2018-11-10T04:20:29.330Z,21.10
2018-11-10T04:22:58.321Z,16.97
2018-11-10T04:25:27.344Z,17.33
2018-11-10T04:27:56.310Z,11.70
2018-11-10T04:30:25.335Z,16.90
2018-11-10T04:32:54.354Z,16.83
2018-11-10T04:35:23.339Z,19.73
2018-11-10T04:37:52.339Z,16.97
2018-11-10T04:40:21.345Z,11.50
2018-11-10T04:42:50.416Z,17.80
2018-11-10T04:45:19.493Z,15.00
2018-11-10T04:47:48.503Z,14.60
2018-11-10T04:50:17.531Z,12.97
2018-11-10T04:52:46.573Z,11.97
2018-11-10T04:55:15.522Z,17.53
2018-11-10T04:57:44.512Z,15.97
2018-11-10T05:00:15.068Z,15.07
2018-11-10T05:02:45.191Z,17.13
2018-11-10T05:05:14.314Z,14.80
2018-11-10T05:07:43.297Z,21.30
2018-11-10T05:10:12.501Z,15.80
2018-11-10T05:12:41.715Z,17.53
2018-11-10T05:15:12.254Z,22.80
2018-11-10T05:17:41.466Z,13.33
2018-11-10T05:20:11.509Z,11.87
2018-11-10T05:22:40.562Z,15.43
2018-11-10T05:25:11.112Z,10.50
2018-11-10T05:27:40.377Z,18.17
2018-11-10T05:30:09.993Z,8.60
2018-11-10T05:32:39.084Z,22.67
2018-11-10T05:35:08.804Z,10.87
2018-11-10T05:37:38.227Z,12.17
2018-11-10T05:40:08.840Z,17.43
2018-11-10T05:42:37.969Z,17.23
2018-11-10T05:45:07.716Z,9.83
2018-11-10T05:47:36.723Z,12.77
2018-11-10T05:50:06.491Z,16.90
2018-11-10T05:52:35.457Z,16.50
2018-11-10T05:55:04.553Z,14.13
2018-11-10T05:57:33.532Z,12.37
2018-11-10T06:00:02.541Z,17.13
2018-11-10T06:02:31.656Z,10.63
2018-11-10T06:05:00.670Z,12.60
2018-11-10T06:07:29.764Z,17.07
2018-11-10T06:09:58.871Z,17.57
2018-11-10T06:12:28.681Z,15.63
2018-11-10T06:14:57.691Z,14.90
2018-11-10T06:17:26.661Z,10.10
2018-11-10T06:19:55.678Z,14.13
2018-11-10T06:22:24.687Z,15.77
2018-11-10T06:24:53.653Z,11.80
2018-11-10T06:27:22.629Z,20.67
2018-11-10T06:29:51.687Z,17.97
2018-11-10T06:32:20.772Z,13.97
2018-11-10T06:34:49.810Z,15.63
2018-11-10T06:37:18.832Z,17.07
2018-11-10T06:39:47.902Z,22.47
2018-11-10T06:42:16.897Z,19.77
2018-11-10T06:44:45.883Z,16.40
2018-11-10T06:47:14.905Z,21.33
2018-11-10T06:49:43.932Z,19.30
2018-11-10T06:52:13.708Z,13.47
2018-11-10T06:54:42.689Z,19.67
2018-11-10T06:57:11.738Z,17.00
2018-11-10T06:59:40.808Z,18.20
2018-11-10T07:02:09.908Z,16.90
2018-11-10T07:04:38.932Z,13.47
2018-11-10T07:07:08.047Z,15.23
2018-11-10T07:09:37.221Z,15.73
2018-11-10T07:12:06.615Z,14.90
2018-11-10T07:14:35.637Z,14.23
2018-11-10T07:17:04.740Z,14.60
2018-11-10T07:19:33.744Z,20.47
2018-11-10T07:22:02.940Z,15.13
2018-11-10T07:24:31.969Z,11.07
2018-11-10T07:27:00.972Z,9.80
2018-11-10T07:29:29.991Z,12.50
2018-11-10T07:31:59.034Z,8.23
2018-11-10T07:34:28.022Z,10.80
2018-11-10T07:36:56.996Z,7.80
2018-11-10T07:39:26.040Z,4.13
2018-11-10T07:41:55.223Z,7.17
2018-11-10T07:44:24.236Z,3.70
2018-11-10T07:46:53.344Z,3.17
2018-11-10T07:49:22.413Z,4.30
2018-11-10T07:51:51.394Z,2.10
2018-11-10T07:54:20.476Z,5.47
2018-11-10T07:56:49.522Z,2.90
2018-11-10T07:59:18.557Z,7.83
2018-11-10T08:01:47.557Z,6.40
2018-11-10T08:04:16.740Z,7.00
2018-11-10T08:06:45.769Z,8.73
2018-11-10T08:09:14.764Z,11.47
2018-11-10T08:11:43.866Z,4.53
2018-11-10T08:14:12.916Z,4.97
2018-11-10T08:16:42.039Z,7.30
2018-11-10T08:19:11.106Z,8.87
2018-11-10T08:21:40.122Z,11.27
2018-11-10T08:24:09.237Z,10.50
2018-11-10T08:26:38.310Z,8.93
2018-11-10T08:29:07.347Z,12.97
2018-11-10T08:31:36.426Z,7.17
2018-11-10T08:34:05.734Z,8.43
2018-11-10T08:36:34.837Z,15.37
2018-11-10T08:39:04.406Z,7.67
2018-11-10T08:41:33.471Z,4.30
2018-11-10T08:44:02.569Z,6.97
2018-11-10T08:46:31.610Z,10.50
2018-11-10T08:49:00.666Z,7.87
2018-11-10T08:51:30.118Z,5.40
2018-11-10T08:53:59.136Z,7.73
2018-11-10T08:56:28.729Z,6.13
2018-11-10T08:58:58.452Z,5.57
2018-11-10T09:01:28.177Z,3.50
2018-11-10T09:03:57.297Z,4.67
2018-11-10T09:06:26.328Z,4.70
2018-11-10T09:08:55.340Z,6.37
2018-11-10T09:11:24.438Z,3.60
2018-11-10T09:13:53.481Z,7.03
2018-11-10T09:16:22.634Z,4.23
2018-11-10T09:18:51.665Z,2.73
2018-11-10T09:21:20.961Z,2.40
2018-11-10T09:23:50.033Z,3.27
2018-11-10T09:26:19.065Z,0.50
2018-11-10T09:28:48.148Z,4.87
2018-11-10T09:31:17.441Z,2.93
2018-11-10T09:33:46.765Z,3.50
2018-11-10T09:36:15.835Z,1.77
2018-11-10T09:38:44.993Z,2.17
2018-11-10T09:41:14.101Z,2.83
2018-11-10T09:43:43.220Z,4.33
2018-11-10T09:46:12.576Z,1.07
2018-11-10T09:48:41.784Z,1.10
2018-11-10T09:51:10.874Z,1.23
2018-11-10T09:53:39.896Z,2.50
2018-11-10T09:56:09.022Z,2.37
2018-11-10T09:58:38.144Z,2.03
2018-11-10T10:01:07.315Z,4.50
2018-11-10T10:03:36.364Z,1.40
2018-11-10T10:06:05.764Z,1.93
2018-11-10T10:08:34.794Z,1.47
2018-11-10T10:11:03.880Z,1.27
2018-11-10T10:13:33.064Z,4.33
2018-11-10T10:16:02.250Z,5.30
2018-11-10T10:18:31.231Z,1.90
2018-11-10T10:21:00.490Z,4.77
2018-11-10T10:23:29.612Z,3.20
2018-11-10T10:25:58.788Z,3.67
2018-11-10T10:28:28.078Z,4.23
2018-11-10T10:30:57.097Z,4.97
2018-11-10T10:33:26.207Z,7.07
2018-11-10T10:35:55.386Z,3.40
2018-11-10T10:38:24.440Z,5.97
2018-11-10T10:40:53.572Z,7.13
2018-11-10T10:43:22.573Z,3.50
2018-11-10T10:45:51.611Z,2.00
2018-11-10T10:48:20.765Z,5.27
2018-11-10T10:50:49.872Z,4.37
2018-11-10T10:53:19.185Z,2.83
2018-11-10T10:55:48.336Z,3.40
2018-11-10T10:58:17.402Z,5.37
2018-11-10T11:00:51.557Z,4.07
2018-11-10T11:03:25.876Z,7.53
2018-11-10T11:05:58.852Z,3.67
2018-11-10T11:08:28.176Z,7.80
2018-11-10T11:10:57.233Z,8.77
2018-11-10T11:13:26.261Z,11.90
2018-11-10T11:15:55.380Z,9.03
2018-11-10T11:18:24.505Z,12.10
2018-11-10T11:21:00.081Z,13.40
2018-11-10T11:23:29.107Z,8.00
2018-11-10T11:25:58.192Z,10.80
2018-11-10T11:28:27.367Z,22.60
2018-11-10T11:30:56.689Z,8.20
2018-11-10T11:33:25.749Z,9.00
2018-11-10T11:35:55.136Z,7.13
2018-11-10T11:38:24.295Z,6.63
2018-11-10T11:40:53.516Z,7.53
2018-11-10T11:43:22.830Z,4.20
2018-11-10T11:45:52.024Z,3.77
2018-11-10T11:48:21.187Z,2.87
2018-11-10T11:50:50.269Z,7.70
2018-11-10T11:53:19.318Z,6.33
2018-11-10T11:55:49.775Z,6.30
2018-11-10T11:58:18.895Z,4.03
2018-11-10T12:00:47.989Z,2.10
2018-11-10T12:03:17.184Z,3.20
2018-11-10T12:05:48.261Z,5.83
2018-11-10T12:08:17.710Z,5.53
2018-11-10T12:10:47.816Z,3.33
2018-11-10T12:13:16.831Z,3.33
2018-11-10T12:15:45.897Z,1.63
2018-11-10T12:18:15.162Z,7.33
2018-11-10T12:20:44.304Z,2.40
2018-11-10T12:23:13.417Z,4.10
2018-11-10T12:25:42.470Z,3.33
2018-11-10T12:28:11.782Z,3.47
2018-11-10T12:30:40.919Z,3.53
2018-11-10T12:33:09.968Z,2.50
2018-11-10T12:35:38.943Z,2.57
2018-11-10T12:38:07.979Z,2.63
2018-11-10T12:40:37.016Z,1.73
2018-11-10T12:43:06.446Z,4.37
2018-11-10T12:45:35.567Z,5.83
2018-11-10T12:48:04.948Z,2.77
2018-11-10T12:50:33.947Z,8.33
2018-11-10T12:53:02.969Z,5.80
2018-11-10T12:55:31.953Z,4.77
2018-11-10T12:58:02.051Z,10.87
2018-11-10T13:00:31.206Z,3.50
2018-11-10T13:03:00.655Z,4.07
2018-11-10T13:05:29.714Z,3.70
2018-11-10T13:07:58.819Z,5.60
2018-11-10T13:10:28.809Z,3.10
2018-11-10T13:12:57.945Z,6.23
2018-11-10T13:15:27.147Z,3.53
2018-11-10T13:17:56.175Z,4.47
2018-11-10T13:20:25.273Z,4.63
2018-11-10T13:22:54.472Z,4.80
2018-11-10T13:25:23.631Z,4.67
2018-11-10T13:27:52.732Z,8.10
2018-11-10T13:30:23.159Z,7.87
2018-11-10T13:32:52.277Z,4.40
2018-11-10T13:35:21.337Z,6.77
2018-11-10T13:37:50.530Z,5.47
2018-11-10T13:40:19.600Z,9.20
2018-11-10T13:42:49.240Z,9.53
2018-11-10T13:45:18.182Z,9.23
2018-11-10T13:47:48.125Z,4.67
2018-11-10T13:50:17.135Z,7.03
2018-11-10T13:52:46.649Z,6.50
2018-11-10T13:55:15.428Z,6.30
2018-11-10T13:57:44.536Z,6.00
2018-11-10T14:00:15.528Z,11.90
2018-11-10T14:02:45.222Z,5.57
2018-11-10T14:05:15.112Z,6.17
2018-11-10T14:07:44.383Z,5.27
2018-11-10T14:10:14.627Z,9.70
2018-11-10T14:12:44.563Z,7.43
2018-11-10T14:15:13.771Z,10.50
2018-11-10T14:17:43.200Z,11.83
2018-11-10T14:20:14.515Z,7.40
2018-11-10T14:22:44.281Z,5.87
2018-11-10T14:25:14.586Z,12.43
2018-11-10T14:27:44.174Z,6.87
2018-11-10T14:30:14.711Z,8.30
2018-11-10T14:32:44.127Z,9.07
2018-11-10T14:35:13.599Z,7.27
2018-11-10T14:37:42.676Z,15.73
2018-11-10T14:40:13.236Z,4.50
2018-11-10T14:42:43.055Z,9.77
2018-11-10T14:45:13.804Z,10.90
2018-11-10T14:47:43.757Z,10.23
2018-11-10T14:50:13.903Z,12.67
2018-11-10T14:52:43.817Z,4.47
2018-11-10T14:55:13.512Z,13.80
2018-11-10T14:57:43.053Z,10.00
2018-11-10T15:00:19.514Z,7.00
2018-11-10T15:02:48.624Z,13.73
2018-11-10T15:05:17.623Z,6.70
2018-11-10T15:07:47.139Z,12.30
2018-11-10T15:10:17.237Z,5.33
2018-11-10T15:12:46.607Z,17.37
2018-11-10T15:15:16.626Z,11.13
2018-11-10T15:17:46.383Z,9.23
2018-11-10T15:20:17.579Z,9.63
2018-11-10T15:22:47.529Z,4.80
2018-11-10T15:25:18.855Z,7.90
2018-11-10T15:27:47.928Z,7.60
2018-11-10T15:30:18.300Z,6.50
2018-11-10T15:32:48.533Z,10.83
2018-11-10T15:35:19.064Z,7.57
2018-11-10T15:37:49.478Z,5.47
2018-11-10T15:40:19.225Z,7.87
2018-11-10T15:42:48.434Z,6.40
2018-11-10T15:45:19.221Z,12.57
2018-11-10T15:47:48.504Z,8.47
2018-11-10T15:50:18.501Z,5.37
2018-11-10T15:52:47.570Z,5.63
2018-11-10T15:55:16.592Z,9.90
2018-11-10T15:57:45.596Z,6.87
2018-11-10T16:00:16.072Z,9.57
2018-11-10T16:02:45.243Z,5.83
2018-11-10T16:05:14.798Z,8.63
2018-11-10T16:07:43.906Z,7.57
2018-11-10T16:10:13.314Z,10.13
2018-11-10T16:12:42.468Z,7.00
2018-11-10T16:15:13.662Z,9.83
2018-11-10T16:17:42.919Z,9.87
2018-11-10T16:20:14.769Z,6.93
2018-11-10T16:22:45.207Z,15.87
2018-11-10T16:25:14.283Z,14.07
2018-11-10T16:27:43.460Z,6.63
2018-11-10T16:30:14.080Z,9.67
2018-11-10T16:32:43.212Z,8.47
2018-11-10T16:35:12.294Z,5.60
2018-11-10T16:37:42.611Z,9.57
2018-11-10T16:40:14.409Z,6.00
2018-11-10T16:42:44.672Z,10.40
2018-11-10T16:45:14.558Z,6.20
2018-11-10T16:47:43.624Z,4.83
2018-11-10T16:50:13.362Z,10.03
2018-11-10T16:52:43.546Z,6.50
2018-11-10T16:55:12.667Z,13.93
2018-11-10T16:57:41.643Z,7.20
2018-11-10T17:00:13.183Z,10.63
2018-11-10T17:02:43.144Z,9.43
2018-11-10T17:05:12.165Z,17.53
2018-11-10T17:07:41.189Z,10.40
2018-11-10T17:10:13.165Z,11.33
2018-11-10T17:12:42.694Z,8.87
2018-11-10T17:15:11.845Z,11.93
2018-11-10T17:17:40.925Z,10.90
2018-11-10T17:20:12.585Z,10.43
2018-11-10T17:22:41.765Z,17.33
2018-11-10T17:25:11.618Z,13.27
2018-11-10T17:27:41.217Z,16.03
2018-11-10T17:30:13.346Z,12.57
2018-11-10T17:32:42.772Z,10.13
2018-11-10T17:35:12.595Z,8.57
2018-11-10T17:37:41.802Z,8.10
2018-11-10T17:40:11.997Z,12.57
2018-11-10T17:42:41.007Z,11.20
2018-11-10T17:45:15.066Z,10.93
2018-11-10T17:47:44.459Z,19.73
2018-11-10T17:50:15.682Z,11.27
2018-11-10T17:52:44.776Z,9.93
2018-11-10T17:55:14.862Z,9.43
2018-11-10T17:57:44.441Z,13.13
2018-11-10T18:00:13.980Z,10.67
2018-11-10T18:02:43.070Z,14.63
2018-11-10T18:05:13.945Z,15.00
2018-11-10T18:07:47.005Z,8.30
2018-11-10T18:10:18.713Z,13.70
2018-11-10T18:12:49.030Z,16.37
2018-11-10T18:15:20.336Z,17.07
2018-11-10T18:17:49.374Z,16.23
2018-11-10T18:20:19.812Z,13.67
2018-11-10T18:22:49.867Z,11.93
2018-11-10T18:25:19.093Z,11.93
2018-11-10T18:27:48.232Z,10.80
2018-11-10T18:30:19.190Z,14.03
2018-11-10T18:32:48.344Z,11.10
2018-11-10T18:35:17.429Z,15.80
2018-11-10T18:37:47.042Z,14.13
2018-11-10T18:40:16.223Z,8.90
2018-11-10T18:42:45.258Z,14.70
2018-11-10T18:45:14.554Z,12.47
2018-11-10T18:47:43.721Z,10.77
2018-11-10T18:50:15.256Z,10.73
2018-11-10T18:52:44.714Z,10.60
2018-11-10T18:55:14.936Z,13.50
2018-11-10T18:57:44.676Z,14.93
2018-11-10T19:00:17.113Z,16.83
2018-11-10T19:02:46.731Z,15.63
2018-11-10T19:05:16.972Z,10.50
2018-11-10T19:07:47.053Z,9.63
2018-11-10T19:10:17.435Z,14.00
2018-11-10T19:12:46.763Z,13.20
2018-11-10T19:15:19.360Z,16.33
2018-11-10T19:17:48.475Z,11.17
2018-11-10T19:20:18.739Z,13.73
2018-11-10T19:22:48.041Z,11.30
2018-11-10T19:25:17.211Z,14.17
2018-11-10T19:27:46.513Z,15.20
2018-11-10T19:30:17.865Z,10.77
2018-11-10T19:32:47.882Z,13.20
2018-11-10T19:35:17.866Z,11.20
2018-11-10T19:37:47.582Z,10.53
2018-11-10T19:40:16.726Z,8.33
2018-11-10T19:42:46.516Z,13.43
2018-11-10T19:45:16.897Z,12.57
2018-11-10T19:47:46.635Z,18.37
2018-11-10T19:50:16.196Z,14.00
2018-11-10T19:52:46.500Z,10.27
2018-11-10T19:55:16.820Z,10.57
2018-11-10T19:57:46.002Z,11.30
2018-11-10T20:00:21.499Z,11.07
2018-11-10T20:02:50.772Z,9.53
2018-11-10T20:05:19.918Z,9.10
2018-11-10T20:07:49.246Z,12.50
2018-11-10T20:10:18.305Z,10.50
2018-11-10T20:12:47.466Z,14.93
2018-11-10T20:15:17.647Z,10.33
2018-11-10T20:17:46.987Z,13.33
2018-11-10T20:20:17.386Z,10.70
2018-11-10T20:22:47.357Z,10.87
2018-11-10T20:25:17.692Z,6.23
2018-11-10T20:27:46.733Z,4.90
2018-11-10T20:30:18.083Z,8.23
2018-11-10T20:32:47.373Z,8.57
2018-11-10T20:35:16.370Z,8.77
2018-11-10T20:37:47.206Z,10.13
2018-11-10T20:40:17.678Z,8.07
2018-11-10T20:42:46.802Z,7.93
2018-11-10T20:45:18.891Z,10.00
2018-11-10T20:47:47.934Z,8.53
2018-11-10T20:50:17.493Z,9.83
2018-11-10T20:52:46.864Z,6.13
2018-11-10T20:55:16.165Z,6.83
2018-11-10T20:57:45.802Z,5.23
2018-11-10T21:00:18.945Z,7.73
2018-11-10T21:02:48.276Z,10.07
2018-11-10T21:05:17.640Z,4.93
2018-11-10T21:07:47.390Z,5.13
2018-11-10T21:10:18.070Z,7.90
2018-11-10T21:12:47.830Z,9.73
2018-11-10T21:15:17.672Z,10.73
2018-11-10T21:17:47.166Z,6.40
2018-11-10T21:20:16.294Z,4.87
2018-11-10T21:22:45.541Z,5.87
2018-11-10T21:25:16.163Z,3.73
2018-11-10T21:27:45.664Z,7.20
2018-11-10T21:30:16.344Z,7.20
2018-11-10T21:32:45.728Z,3.23
2018-11-10T21:35:15.024Z,8.13
2018-11-10T21:37:44.051Z,3.37
2018-11-10T21:40:15.439Z,9.00
2018-11-10T21:42:44.748Z,7.70
2018-11-10T21:45:14.539Z,6.47
2018-11-10T21:47:43.696Z,7.80
2018-11-10T21:50:14.176Z,6.40
2018-11-10T21:52:43.980Z,3.63
2018-11-10T21:55:14.623Z,8.27
2018-11-10T21:57:44.278Z,5.97
2018-11-10T22:00:15.253Z,10.60
2018-11-10T22:02:44.935Z,10.37
2018-11-10T22:05:13.910Z,15.97
2018-11-10T22:07:42.895Z,9.67
2018-11-10T22:10:13.605Z,14.17
2018-11-10T22:12:43.110Z,8.23
2018-11-10T22:15:14.731Z,6.53
2018-11-10T22:17:44.523Z,6.00
2018-11-10T22:20:15.877Z,4.53
2018-11-10T22:22:44.871Z,4.17
2018-11-10T22:25:14.313Z,8.10
2018-11-10T22:27:44.584Z,5.07
2018-11-10T22:30:15.720Z,7.33
2018-11-10T22:32:45.289Z,9.93
2018-11-10T22:35:14.537Z,5.67
2018-11-10T22:37:43.590Z,6.40
2018-11-10T22:40:15.834Z,8.40
2018-11-10T22:42:45.215Z,6.60
2018-11-10T22:45:16.929Z,8.03
2018-11-10T22:47:46.043Z,7.10
2018-11-10T22:50:16.634Z,4.50
2018-11-10T22:52:45.795Z,47.00
2018-11-10T22:55:14.844Z,9.57
2018-11-10T22:57:43.852Z,9.30
2018-11-10T23:00:20.049Z,4.13
2018-11-10T23:02:51.211Z,6.47
2018-11-10T23:05:20.896Z,7.07
2018-11-10T23:07:49.893Z,7.27
2018-11-10T23:10:19.198Z,11.80
2018-11-10T23:12:49.464Z,8.63
2018-11-10T23:15:18.695Z,3.63
2018-11-10T23:18:05.714Z,5.60
2018-11-10T23:20:53.314Z,5.70
2018-11-10T23:23:40.701Z,4.23
2018-11-10T23:26:26.803Z,3.93
2018-11-10T23:29:13.259Z,5.17
2018-11-10T23:31:42.955Z,6.50
2018-11-10T23:34:32.151Z,4.87
2018-11-10T23:37:18.104Z,5.97
2018-11-10T23:40:06.587Z,3.97
2018-11-10T23:42:55.470Z,3.33
2018-11-10T23:45:42.141Z,7.57
2018-11-10T23:48:29.782Z,10.97
2018-11-10T23:50:59.418Z,5.80
2018-11-10T23:53:44.918Z,5.70
2018-11-10T23:56:26.804Z,5.63
2018-11-10T23:59:11.271Z,4.33
